createdAt,value
2023-04-27T00:01:52.503Z,43.11
2023-04-27T00:04:21.256Z,43.11
2023-04-27T00:06:49.462Z,43.17
2023-04-27T00:09:17.814Z,43.19
2023-04-27T00:11:47.733Z,43.16
2023-04-27T00:14:15.865Z,43.14
2023-04-27T00:16:44.079Z,43.14
2023-04-27T00:19:13.995Z,43.08
2023-04-27T00:21:42.691Z,43.12
2023-04-27T00:24:10.767Z,43.04
2023-04-27T00:26:38.829Z,43.02
2023-04-27T00:29:15.598Z,43.07
2023-04-27T00:31:44.019Z,42.96
2023-04-27T00:34:12.140Z,42.99
2023-04-27T00:36:40.254Z,43.08
2023-04-27T00:39:09.117Z,42.98
2023-04-27T00:41:39.310Z,43.11
2023-04-27T00:44:07.515Z,43.10
2023-04-27T00:46:37.187Z,43.08
2023-04-27T00:49:05.948Z,43.23
2023-04-27T00:51:34.188Z,43.05
2023-04-27T00:54:03.002Z,43.01
2023-04-27T00:56:31.908Z,43.19
2023-04-27T00:59:00.986Z,42.99
2023-04-27T01:01:31.111Z,42.92
2023-04-27T01:04:00.837Z,42.96
2023-04-27T01:06:29.784Z,43.01
2023-04-27T01:08:58.044Z,42.97
2023-04-27T01:11:26.297Z,42.93
2023-04-27T01:13:57.027Z,42.94
2023-04-27T01:16:25.294Z,42.95
2023-04-27T01:18:53.410Z,42.85
2023-04-27T01:21:22.856Z,42.95
2023-04-27T01:23:52.391Z,42.81
2023-04-27T01:26:20.452Z,42.83
2023-04-27T01:28:48.886Z,42.90
2023-04-27T01:31:17.117Z,43.01
2023-04-27T01:33:45.237Z,42.90
2023-04-27T01:36:13.369Z,42.95
2023-04-27T01:38:42.386Z,42.96
2023-04-27T01:41:12.140Z,42.95
2023-04-27T01:43:40.303Z,42.81
2023-04-27T01:46:09.215Z,42.80
2023-04-27T01:48:37.884Z,42.85
2023-04-27T01:51:06.079Z,42.91
2023-04-27T01:53:34.245Z,42.83
2023-04-27T01:56:02.728Z,42.95
2023-04-27T01:58:32.552Z,42.75
2023-04-27T02:01:00.631Z,42.90
2023-04-27T02:03:29.104Z,42.90
2023-04-27T02:05:57.580Z,42.91
2023-04-27T02:08:25.826Z,42.77
2023-04-27T02:10:54.070Z,42.78
2023-04-27T02:13:22.487Z,42.81
2023-04-27T02:15:52.047Z,42.81
2023-04-27T02:18:20.797Z,42.66
2023-04-27T02:20:49.174Z,42.67
2023-04-27T02:23:17.255Z,42.65
2023-04-27T02:25:46.971Z,42.55
2023-04-27T02:28:15.420Z,42.67
2023-04-27T02:30:44.004Z,42.47
2023-04-27T02:33:13.979Z,42.70
2023-04-27T02:35:42.031Z,42.56
2023-04-27T02:38:10.413Z,42.46
2023-04-27T02:40:38.463Z,42.46
2023-04-27T02:43:06.708Z,42.59
2023-04-27T02:45:38.296Z,42.63
2023-04-27T02:48:06.816Z,42.59
2023-04-27T02:50:41.937Z,42.57
2023-04-27T02:53:11.086Z,42.49
2023-04-27T02:55:39.711Z,42.69
2023-04-27T02:58:08.058Z,42.39
2023-04-27T03:00:36.195Z,42.64
2023-04-27T03:03:05.039Z,42.52
2023-04-27T03:05:33.380Z,42.47
2023-04-27T03:08:18.534Z,42.50
2023-04-27T03:10:46.746Z,42.60
2023-04-27T03:13:15.891Z,42.66
2023-04-27T03:15:43.984Z,42.60
2023-04-27T03:18:12.417Z,42.46
2023-04-27T03:20:41.077Z,42.58
2023-04-27T03:23:09.391Z,42.46
2023-04-27T03:25:38.795Z,42.65
2023-04-27T03:28:07.879Z,42.69
2023-04-27T03:30:36.034Z,42.54
2023-04-27T03:33:04.184Z,42.63
2023-04-27T03:35:32.230Z,42.50
2023-04-27T03:38:00.342Z,42.74
2023-04-27T03:40:28.509Z,42.66
2023-04-27T03:42:59.161Z,42.50
2023-04-27T03:45:27.325Z,42.59
2023-04-27T03:47:55.755Z,42.68
2023-04-27T03:50:24.202Z,42.62
2023-04-27T03:52:52.255Z,42.40
2023-04-27T03:55:21.137Z,42.43
2023-04-27T03:57:49.282Z,42.42
2023-04-27T04:00:19.434Z,42.51
2023-04-27T04:02:47.881Z,42.54
2023-04-27T04:05:16.309Z,42.42
2023-04-27T04:07:44.721Z,42.49
2023-04-27T04:10:13.026Z,42.59
2023-04-27T04:12:41.289Z,42.58
2023-04-27T04:15:09.888Z,42.53
2023-04-27T04:17:39.405Z,42.55
2023-04-27T04:20:10.756Z,42.38
2023-04-27T04:22:39.590Z,42.52
2023-04-27T04:25:08.653Z,42.58
2023-04-27T04:27:37.694Z,42.54
2023-04-27T04:30:07.166Z,42.55
2023-04-27T04:32:37.859Z,42.38
2023-04-27T04:35:07.958Z,42.49
2023-04-27T04:37:36.531Z,42.48
2023-04-27T04:40:10.397Z,42.44
2023-04-27T04:42:38.885Z,42.51
2023-04-27T04:45:08.134Z,42.54
2023-04-27T04:47:36.749Z,42.51
2023-04-27T04:50:05.343Z,42.51
2023-04-27T04:52:34.826Z,42.49
2023-04-27T04:55:03.279Z,42.38
2023-04-27T04:57:31.994Z,42.45
2023-04-27T05:00:01.992Z,42.37
2023-04-27T05:02:30.614Z,42.42
2023-04-27T05:04:58.945Z,42.44
2023-04-27T05:07:27.020Z,42.44
2023-04-27T05:09:57.267Z,42.56
2023-04-27T05:12:25.437Z,42.55
2023-04-27T05:14:53.600Z,42.41
2023-04-27T05:17:21.783Z,42.41
2023-04-27T05:19:50.010Z,42.47
2023-04-27T05:22:18.466Z,42.62
2023-04-27T05:24:47.020Z,42.53
2023-04-27T05:27:16.804Z,42.37
2023-04-27T05:29:45.309Z,42.54
2023-04-27T05:32:13.393Z,42.56
2023-04-27T05:34:43.706Z,42.65
2023-04-27T05:37:11.846Z,42.61
2023-04-27T05:39:40.609Z,42.47
2023-04-27T05:42:08.795Z,42.50
2023-04-27T05:44:38.252Z,42.44
2023-04-27T05:47:06.563Z,42.57
2023-04-27T05:49:34.578Z,42.79
2023-04-27T05:52:04.280Z,42.62
2023-04-27T05:54:32.505Z,42.70
2023-04-27T05:57:00.540Z,42.74
2023-04-27T05:59:29.362Z,42.62
2023-04-27T06:01:58.984Z,42.52
2023-04-27T06:04:27.615Z,42.47
2023-04-27T06:06:55.838Z,42.69
2023-04-27T06:09:23.935Z,42.52
2023-04-27T06:11:52.253Z,42.56
2023-04-27T06:14:20.284Z,42.49
2023-04-27T06:16:48.370Z,42.60
2023-04-27T06:19:18.037Z,42.60
2023-04-27T06:21:46.446Z,42.62
2023-04-27T06:24:14.686Z,42.62
2023-04-27T06:26:42.707Z,42.60
2023-04-27T06:29:11.393Z,42.65
2023-04-27T06:31:39.691Z,42.53
2023-04-27T06:34:07.954Z,42.70
2023-04-27T06:36:37.445Z,42.42
2023-04-27T06:39:05.485Z,42.57
2023-04-27T06:41:34.024Z,42.57
2023-04-27T06:44:02.080Z,42.59
2023-04-27T06:46:30.215Z,42.60
2023-04-27T06:48:58.461Z,42.68
2023-04-27T06:51:26.837Z,42.55
2023-04-27T06:53:57.311Z,42.57
2023-04-27T06:56:25.515Z,42.68
2023-04-27T06:58:53.857Z,42.55
2023-04-27T07:01:22.664Z,42.59
2023-04-27T07:03:51.270Z,42.76
2023-04-27T07:06:19.913Z,42.66
2023-04-27T07:08:47.986Z,42.55
2023-04-27T07:11:17.615Z,42.71
2023-04-27T07:13:45.745Z,42.72
2023-04-27T07:16:13.888Z,42.65
2023-04-27T07:18:43.449Z,42.70
2023-04-27T07:21:12.311Z,42.63
2023-04-27T07:23:41.293Z,42.66
2023-04-27T07:26:10.741Z,42.59
2023-04-27T07:28:40.277Z,42.59
2023-04-27T07:31:08.538Z,42.70
2023-04-27T07:33:36.782Z,42.62
2023-04-27T07:36:05.362Z,42.71
2023-04-27T07:38:33.564Z,42.69
2023-04-27T07:41:07.472Z,42.80
2023-04-27T07:43:36.132Z,42.58
2023-04-27T07:46:05.892Z,42.62
2023-04-27T07:48:34.055Z,42.71
2023-04-27T07:51:02.338Z,42.75
2023-04-27T07:53:30.441Z,42.74
2023-04-27T07:55:58.520Z,42.76
2023-04-27T07:58:26.789Z,42.73
2023-04-27T08:00:55.217Z,42.76
2023-04-27T08:03:25.242Z,42.60
2023-04-27T08:05:53.660Z,42.74
2023-04-27T08:08:22.782Z,42.58
2023-04-27T08:10:50.801Z,42.62
2023-04-27T08:13:18.867Z,42.43
2023-04-27T08:15:49.290Z,42.44
2023-04-27T08:18:17.978Z,42.83
2023-04-27T08:20:50.685Z,42.64
2023-04-27T08:23:18.832Z,42.57
2023-04-27T08:25:47.041Z,42.68
2023-04-27T08:28:16.363Z,42.59
2023-04-27T08:30:44.746Z,42.58
2023-04-27T08:33:13.416Z,42.64
2023-04-27T08:35:41.670Z,42.71
2023-04-27T08:38:11.299Z,42.71
2023-04-27T08:40:43.984Z,42.69
2023-04-27T08:43:12.319Z,42.72
2023-04-27T08:45:47.053Z,42.70
2023-04-27T08:48:15.274Z,42.69
2023-04-27T08:50:45.948Z,42.78
2023-04-27T08:53:23.202Z,42.63
2023-04-27T08:55:51.817Z,42.57
2023-04-27T08:58:19.912Z,42.83
2023-04-27T09:00:50.778Z,43.00
2023-04-27T09:03:24.244Z,42.93
2023-04-27T09:06:04.295Z,42.63
2023-04-27T09:08:45.972Z,42.44
2023-04-27T09:11:14.250Z,42.39
2023-04-27T09:13:45.399Z,42.58
2023-04-27T09:16:15.154Z,42.63
2023-04-27T09:18:45.218Z,42.39
2023-04-27T09:21:23.565Z,42.58
2023-04-27T09:23:53.357Z,42.50
2023-04-27T09:26:23.107Z,42.85
2023-04-27T09:28:52.916Z,42.58
2023-04-27T09:31:21.498Z,42.59
2023-04-27T09:33:56.537Z,42.80
2023-04-27T09:36:25.842Z,42.49
2023-04-27T09:38:55.617Z,42.27
2023-04-27T09:41:23.798Z,42.34
2023-04-27T09:43:55.723Z,42.83
2023-04-27T09:46:26.017Z,42.40
2023-04-27T09:48:55.450Z,42.47
2023-04-27T09:51:24.092Z,42.45
2023-04-27T09:53:56.951Z,42.62
2023-04-27T09:56:37.679Z,42.71
2023-04-27T09:59:21.460Z,43.03
2023-04-27T10:01:53.805Z,43.07
2023-04-27T10:04:54.080Z,43.21
2023-04-27T10:07:22.803Z,43.13
2023-04-27T10:09:52.624Z,43.03
2023-04-27T10:12:22.621Z,43.05
2023-04-27T10:14:55.561Z,42.98
2023-04-27T10:17:31.471Z,43.12
2023-04-27T10:20:01.289Z,43.19
2023-04-27T10:22:40.255Z,43.32
2023-04-27T10:25:22.106Z,43.26
2023-04-27T10:27:55.722Z,43.47
2023-04-27T10:30:26.100Z,43.44
2023-04-27T10:32:56.868Z,43.48
2023-04-27T10:35:34.801Z,43.56
2023-04-27T10:38:10.275Z,43.42
2023-04-27T10:40:40.114Z,43.47
2023-04-27T10:43:12.771Z,43.46
2023-04-27T10:45:41.499Z,43.37
2023-04-27T10:48:10.959Z,43.47
2023-04-27T10:50:39.094Z,43.62
2023-04-27T10:53:08.818Z,43.64
2023-04-27T10:55:37.454Z,43.78
2023-04-27T10:58:07.146Z,43.94
2023-04-27T11:00:37.594Z,43.83
2023-04-27T11:03:16.388Z,44.03
2023-04-27T11:05:45.948Z,43.99
2023-04-27T11:08:15.875Z,44.15
2023-04-27T11:10:47.183Z,44.18
2023-04-27T11:13:18.098Z,44.34
2023-04-27T11:15:50.509Z,44.22
2023-04-27T11:18:20.668Z,44.03
2023-04-27T11:20:50.753Z,44.07
2023-04-27T11:23:26.442Z,44.11
2023-04-27T11:25:55.329Z,43.95
2023-04-27T11:28:25.400Z,44.20
2023-04-27T11:31:00.906Z,44.01
2023-04-27T11:33:29.404Z,44.15
2023-04-27T11:35:58.258Z,43.79
2023-04-27T11:38:27.684Z,43.86
2023-04-27T11:41:02.804Z,44.03
2023-04-27T11:43:33.171Z,44.06
2023-04-27T11:46:04.332Z,43.95
2023-04-27T11:48:32.663Z,44.06
2023-04-27T11:51:01.459Z,43.85
2023-04-27T11:53:34.374Z,43.88
2023-04-27T11:56:05.324Z,44.24
2023-04-27T11:58:37.037Z,43.86
2023-04-27T12:01:05.503Z,43.96
2023-04-27T12:03:34.358Z,43.80
2023-04-27T12:08:33.987Z,43.98
2023-04-27T12:11:02.551Z,43.76
2023-04-27T12:13:31.002Z,43.82
2023-04-27T12:16:01.134Z,44.11
2023-04-27T12:18:29.398Z,43.90
2023-04-27T12:20:59.005Z,43.98
2023-04-27T12:23:30.931Z,44.06
2023-04-27T12:25:59.045Z,43.88
2023-04-27T12:28:27.154Z,44.07
2023-04-27T12:30:56.052Z,43.56
2023-04-27T12:33:26.052Z,43.57
2023-04-27T12:35:54.103Z,43.64
2023-04-27T12:38:23.246Z,43.37
2023-04-27T12:40:51.573Z,43.80
2023-04-27T12:43:19.637Z,43.83
2023-04-27T12:45:47.711Z,43.40
2023-04-27T12:48:17.562Z,43.42
2023-04-27T12:50:47.616Z,43.64
2023-04-27T12:53:15.652Z,43.33
2023-04-27T12:55:44.126Z,43.23
2023-04-27T12:58:12.620Z,43.16
2023-04-27T13:00:41.744Z,43.51
2023-04-27T13:03:10.078Z,43.26
2023-04-27T13:05:38.593Z,43.36
2023-04-27T13:08:08.073Z,43.41
2023-04-27T13:10:36.578Z,42.89
2023-04-27T13:13:04.863Z,42.86
2023-04-27T13:15:33.260Z,42.82
2023-04-27T13:18:05.273Z,42.75
2023-04-27T13:20:33.902Z,42.88
2023-04-27T13:23:01.950Z,42.80
2023-04-27T13:25:31.504Z,43.11
2023-04-27T13:27:59.679Z,42.65
2023-04-27T13:30:28.073Z,42.95
2023-04-27T13:33:04.368Z,42.88
2023-04-27T13:35:38.987Z,42.94
2023-04-27T13:38:07.360Z,42.53
2023-04-27T13:40:36.903Z,42.75
2023-04-27T13:43:05.068Z,42.77
2023-04-27T13:45:33.446Z,42.50
2023-04-27T13:48:01.803Z,42.89
2023-04-27T13:50:30.079Z,42.70
2023-04-27T13:52:58.471Z,42.69
2023-04-27T13:55:26.850Z,42.43
2023-04-27T13:57:56.381Z,42.68
2023-04-27T14:00:25.015Z,42.66
2023-04-27T14:02:53.276Z,42.52
2023-04-27T14:05:21.662Z,42.73
2023-04-27T14:07:49.832Z,42.85
2023-04-27T14:10:18.628Z,42.51
2023-04-27T14:12:47.038Z,42.61
2023-04-27T14:15:16.676Z,42.62
2023-04-27T14:17:45.060Z,42.73
2023-04-27T14:20:13.620Z,42.64
2023-04-27T14:22:41.813Z,42.35
2023-04-27T14:25:10.674Z,42.49
2023-04-27T14:27:38.849Z,42.79
2023-04-27T14:30:08.514Z,42.78
2023-04-27T14:32:38.285Z,42.66
2023-04-27T14:35:07.094Z,42.44
2023-04-27T14:37:35.208Z,42.65
2023-04-27T14:40:04.806Z,42.53
2023-04-27T14:42:33.211Z,42.16
2023-04-27T14:45:01.629Z,42.60
2023-04-27T14:47:29.744Z,42.24
2023-04-27T14:50:00.397Z,42.41
2023-04-27T14:52:29.069Z,42.36
2023-04-27T14:54:59.294Z,42.34
2023-04-27T14:57:27.475Z,42.31
2023-04-27T14:59:56.983Z,42.24
2023-04-27T15:02:25.136Z,42.12
2023-04-27T15:04:53.315Z,42.19
2023-04-27T15:07:22.799Z,42.12
2023-04-27T15:09:51.495Z,42.18
2023-04-27T15:12:19.767Z,42.03
2023-04-27T15:14:50.078Z,42.19
2023-04-27T15:17:18.168Z,41.90
2023-04-27T15:19:49.478Z,42.04
2023-04-27T15:22:17.610Z,41.83
2023-04-27T15:24:47.223Z,41.94
2023-04-27T15:27:15.709Z,41.93
2023-04-27T15:29:43.916Z,41.90
2023-04-27T15:32:12.079Z,42.08
2023-04-27T15:34:42.622Z,41.91
2023-04-27T15:37:13.520Z,41.96
2023-04-27T15:39:42.120Z,41.82
2023-04-27T15:42:11.773Z,41.90
2023-04-27T15:44:39.872Z,41.49
2023-04-27T15:47:08.147Z,41.72
2023-04-27T15:49:45.846Z,41.44
2023-04-27T15:52:17.927Z,41.70
2023-04-27T15:54:46.013Z,41.54
2023-04-27T15:57:15.585Z,41.52
2023-04-27T15:59:43.731Z,41.37
2023-04-27T16:02:12.490Z,41.43
2023-04-27T16:04:40.764Z,41.18
2023-04-27T16:07:09.155Z,41.29
2023-04-27T16:09:37.671Z,41.29
2023-04-27T16:12:06.670Z,41.28
2023-04-27T16:14:36.423Z,41.17
2023-04-27T16:17:04.572Z,40.92
2023-04-27T16:19:32.797Z,41.17
2023-04-27T16:22:01.329Z,40.93
2023-04-27T16:24:30.502Z,41.11
2023-04-27T16:26:58.796Z,40.84
2023-04-27T16:29:27.020Z,40.97
2023-04-27T16:31:56.652Z,41.00
2023-04-27T16:34:25.379Z,41.20
2023-04-27T16:36:53.524Z,40.84
2023-04-27T16:39:21.748Z,41.17
2023-04-27T16:41:50.261Z,41.00
2023-04-27T16:44:18.464Z,40.88
2023-04-27T16:46:47.387Z,40.63
2023-04-27T16:49:17.380Z,40.86
2023-04-27T16:51:46.293Z,40.86
2023-04-27T16:54:16.415Z,40.86
2023-04-27T16:56:45.847Z,41.06
2023-04-27T16:59:14.266Z,40.68
2023-04-27T17:01:42.804Z,40.93
2023-04-27T17:04:12.206Z,40.78
2023-04-27T17:06:42.263Z,40.86
2023-04-27T17:09:18.138Z,40.73
2023-04-27T17:11:46.401Z,40.75
2023-04-27T17:14:14.935Z,40.85
2023-04-27T17:16:43.006Z,40.54
2023-04-27T17:19:12.123Z,40.76
2023-04-27T17:21:40.814Z,40.71
2023-04-27T17:24:11.755Z,40.80
2023-04-27T17:26:39.748Z,40.82
2023-04-27T17:29:07.916Z,40.74
2023-04-27T17:31:36.047Z,40.71
2023-04-27T17:34:04.539Z,40.41
2023-04-27T17:36:32.859Z,40.31
2023-04-27T17:39:01.824Z,40.28
2023-04-27T17:41:32.834Z,40.48
2023-04-27T17:44:01.783Z,40.48
2023-04-27T17:46:30.194Z,40.15
2023-04-27T17:48:58.900Z,40.14
2023-04-27T17:51:27.621Z,39.96
2023-04-27T17:53:56.352Z,39.55
2023-04-27T17:56:24.640Z,39.62
2023-04-27T17:58:54.547Z,39.44
2023-04-27T18:01:23.084Z,39.31
2023-04-27T18:03:51.639Z,39.16
2023-04-27T18:06:21.384Z,39.45
2023-04-27T18:08:50.630Z,39.33
2023-04-27T18:11:19.203Z,39.25
2023-04-27T18:13:48.030Z,38.74
2023-04-27T18:16:17.893Z,38.61
2023-04-27T18:18:46.287Z,38.60
2023-04-27T18:21:25.462Z,38.68
2023-04-27T18:23:53.964Z,38.72
2023-04-27T18:26:24.114Z,38.42
2023-04-27T18:28:53.274Z,38.77
2023-04-27T18:31:26.127Z,38.84
2023-04-27T18:33:55.148Z,38.88
2023-04-27T18:36:25.651Z,39.21
2023-04-27T18:38:54.114Z,39.49
2023-04-27T18:41:23.968Z,39.34
2023-04-27T18:43:52.655Z,39.89
2023-04-27T18:46:21.505Z,40.08
2023-04-27T18:48:51.905Z,40.04
2023-04-27T18:51:20.956Z,40.02
2023-04-27T18:53:49.460Z,39.72
2023-04-27T18:56:18.100Z,40.16
2023-04-27T18:58:48.661Z,40.07
2023-04-27T19:01:21.196Z,40.11
2023-04-27T19:03:51.959Z,39.95
2023-04-27T19:06:21.980Z,39.76
2023-04-27T19:08:50.634Z,39.90
2023-04-27T19:11:22.303Z,40.06
2023-04-27T19:13:51.480Z,39.87
2023-04-27T19:16:20.048Z,40.01
2023-04-27T19:18:48.771Z,39.92
2023-04-27T19:21:19.149Z,39.90
2023-04-27T19:23:48.576Z,39.66
2023-04-27T19:26:17.460Z,39.77
2023-04-27T19:28:45.903Z,39.75
2023-04-27T19:31:15.312Z,39.74
2023-04-27T19:33:46.680Z,39.88
2023-04-27T19:36:15.787Z,39.85
2023-04-27T19:38:45.333Z,39.74
2023-04-27T19:41:14.740Z,39.63
2023-04-27T19:43:42.944Z,39.69
2023-04-27T19:46:11.286Z,39.71
2023-04-27T19:48:41.090Z,39.69
2023-04-27T19:51:16.659Z,39.29
2023-04-27T19:53:46.512Z,39.47
2023-04-27T19:56:14.715Z,39.53
2023-04-27T19:58:42.999Z,39.44
2023-04-27T20:01:12.945Z,39.31
2023-04-27T20:03:41.732Z,39.21
2023-04-27T20:06:11.363Z,39.22
2023-04-27T20:08:39.856Z,39.30
2023-04-27T20:11:09.411Z,39.19
2023-04-27T20:13:37.852Z,39.08
2023-04-27T20:16:06.641Z,39.21
2023-04-27T20:18:35.100Z,39.16
2023-04-27T20:21:03.848Z,39.18
2023-04-27T20:23:32.132Z,38.99
2023-04-27T20:26:01.198Z,38.98
2023-04-27T20:28:32.623Z,38.93
2023-04-27T20:31:00.951Z,39.81
2023-04-27T20:33:29.005Z,39.12
2023-04-27T20:36:03.538Z,39.36
2023-04-27T20:38:38.548Z,39.62
2023-04-27T20:41:06.820Z,40.13
2023-04-27T20:43:39.114Z,40.39
2023-04-27T20:46:07.738Z,40.71
2023-04-27T20:48:36.174Z,40.59
2023-04-27T20:51:04.726Z,41.10
2023-04-27T20:53:33.050Z,40.82
2023-04-27T20:56:01.456Z,40.89
2023-04-27T20:58:29.668Z,40.90
2023-04-27T21:00:59.209Z,40.74
2023-04-27T21:03:27.637Z,41.04
2023-04-27T21:05:56.063Z,41.41
2023-04-27T21:08:24.179Z,40.87
2023-04-27T21:10:52.429Z,41.16
2023-04-27T21:13:20.693Z,41.23
2023-04-27T21:15:48.811Z,41.13
2023-04-27T21:18:29.105Z,41.41
2023-04-27T21:20:58.860Z,41.50
2023-04-27T21:23:27.235Z,41.37
2023-04-27T21:25:55.871Z,41.26
2023-04-27T21:28:24.285Z,41.09
2023-04-27T21:30:52.594Z,41.47
2023-04-27T21:33:22.493Z,41.51
2023-04-27T21:35:50.575Z,41.19
2023-04-27T21:38:18.735Z,41.70
2023-04-27T21:40:47.137Z,41.61
2023-04-27T21:43:15.243Z,41.19
2023-04-27T21:45:43.353Z,41.55
2023-04-27T21:48:11.602Z,41.15
2023-04-27T21:50:41.119Z,41.40
2023-04-27T21:53:09.527Z,41.29
2023-04-27T21:55:37.642Z,41.20
2023-04-27T21:58:05.928Z,41.58
2023-04-27T22:00:34.426Z,41.58
2023-04-27T22:03:02.614Z,41.97
2023-04-27T22:05:33.460Z,41.73
2023-04-27T22:08:03.406Z,41.87
2023-04-27T22:10:31.629Z,41.29
2023-04-27T22:13:05.223Z,41.47
2023-04-27T22:15:43.239Z,41.68
2023-04-27T22:18:11.404Z,41.90
2023-04-27T22:20:40.389Z,41.61
2023-04-27T22:23:10.289Z,41.99
2023-04-27T22:25:38.589Z,41.78
2023-04-27T22:28:06.657Z,41.88
2023-04-27T22:30:36.256Z,41.91
2023-04-27T22:33:04.662Z,41.78
2023-04-27T22:35:33.756Z,41.83
2023-04-27T22:38:02.816Z,41.90
2023-04-27T22:40:32.382Z,41.79
2023-04-27T22:43:00.568Z,41.53
2023-04-27T22:45:28.777Z,41.58
2023-04-27T22:47:57.630Z,41.67
2023-04-27T22:50:26.747Z,41.31
2023-04-27T22:52:54.971Z,41.61
2023-04-27T22:55:23.504Z,41.57
2023-04-27T22:57:53.969Z,41.47
2023-04-27T23:00:22.232Z,41.55
2023-04-27T23:02:50.868Z,41.48
2023-04-27T23:05:19.067Z,41.35
2023-04-27T23:07:47.117Z,41.28
2023-04-27T23:10:15.766Z,41.33
2023-04-27T23:12:43.978Z,41.26
2023-04-27T23:15:15.183Z,41.42
2023-04-27T23:17:43.568Z,41.29
2023-04-27T23:20:24.519Z,41.24
2023-04-27T23:22:55.855Z,41.14
2023-04-27T23:25:23.920Z,41.03
2023-04-27T23:27:52.863Z,41.02
2023-04-27T23:30:23.455Z,41.16
2023-04-27T23:32:52.114Z,40.60
2023-04-27T23:35:20.358Z,40.93
2023-04-27T23:37:48.660Z,41.03
2023-04-27T23:40:16.748Z,40.74
2023-04-27T23:42:44.825Z,40.79
2023-04-27T23:45:13.415Z,40.84
2023-04-27T23:47:43.212Z,40.64
2023-04-27T23:50:11.863Z,40.59
2023-04-27T23:52:39.992Z,40.99
2023-04-27T23:55:09.178Z,40.79
2023-04-27T23:57:37.263Z,40.75
